Black, MO (63625)

4:23 AM CST on February 13, 2016 (GMT -0600)
Parkland Lawn Care | | Change Station
CLOSE
Current Station
Personal Weather Station
Location: Caledonia, MO
Elevation: 935 ft
Nearby Weather Stations

Elev 935 ft 37.77 °N, 90.77 °W | Updated 1 second ago

Overcast
Overcast
16.2 °F
Feels Like 16 °F
N
1.8
Wind Variable Wind from NW
Gusts 2.5 mph

Today
High -- | Low -- °F
--% Chance of Precip.
Yesterday
High -- | Low -- °F
Precip. -- in
Pressure 30.66 in
Visibility 10.0 miles
Clouds Overcast 11000 ft
Windchill 16 °F
Dew Point -7 °F
Humidity 35%
Rainfall 0.00 in
Snow Depth Not available.
6:56 AM 5:40 PM
Waxing Crescent, 29% visible
METAR KFAM 130956Z AUTO 34007KT 10SM OVC110 M09/M16 A3056 RMK AO2 SLP381 T10941161 FZRANO
Pressure 30.66 in
Visibility 10.0 miles
Clouds Overcast 11000 ft
Windchill 16 °F
Dew Point -7 °F
Humidity 35%
Rainfall 0.00 in
Snow Depth Not available.
6:56 AM 5:40 PM
Waxing Crescent, 29% visible
METAR KFAM 130956Z AUTO 34007KT 10SM OVC110 M09/M16 A3056 RMK AO2 SLP381 T10941161 FZRANO

10-Day Weather Forecast

Almanac

Astronomy

Feb. 13, 2016 Rise Set
Actual Time
Civil Twilight
Nautical Twilight
Astronomical Twilight
Moon
Length of Visible Light
Length of Day
Tomorrow will be .
, % of the Moon is Illuminated

Today's Extremes

State Highs State Lows

Community

WunderPhotos

Upload Photos

1,892,536 photos uploaded!

WunderBlog® & News

Nearby

Air Quality

  Air Quality AQ Index Pollutant
Not available.

Snow Depth

Station Depth Elevation

Earthquake Activity

City Distance Mag. Time & Date
Minimum magnitude displayed is 2.5.

Coastal Water Temperatures

Place Temperature

Stations

Nearby Weather Stations

Station Location Temp. Windchill Dew Point Humidity Wind Precip. Elev Updated Type
                   

Watches & Warnings

There are currently no watches in effect.